Old Tappan, New Jersey
Current Conditions -  °F | °C
As of 7:33 AM on Monday 26 Jan 2015 (Local Time) from KTEB Reporting Station
Moderate Snow Moderate Snow  
Wind Chill: 12°   Ceiling: 2500
Heat Index: 21°   Visibility: 2.5mi
Dew Point: 10°   Wind: 8mph
Humidity: 63%   Direction: 50°NE
Pressure: 30.01"   Gusts: NA
Location:  41.0025°N, 74.0303°W
Report Text: KTEB 261233Z 05007KT 2 1/2SM SN OVC025 M06/M12 A3001 RMK AO2 P0000 $
Loading
Personal Weather Stations






























Interactive Weather Map New forecast layout! Learn more

10-Day Weather Forecast

Advertisements
Track Severe Weather on mobile